Terminal Aerodrome Forecast
Issued by NWS Melbourne, FL

Home | Current Version | Previous Version | Text Only | Print | Product List | Glossary On
Versions: 1 2 3 4 5 6 7 8 9 10 11 12 13
000
FTUS42 KMLB 020534
TAFVRB
TAF
KVRB 020534Z 0206/0306 24003KT P6SM SCT250
     FM021400 12009KT P6SM SCT040 BKN250
     FM030300 14004KT P6SM SCT250=

USA.gov is the U.S. government's official web portal to all federal, state and local government web resources and services.